Meteo Giornale » Osservazioni meteo Italia » Catania-Fontanarossa

ore: 23:50 - Osservazioni Meteo Catania-Fontanarossa
Lat. 37° 28' N Lon. 15° 3' E Alt. 11 metri s.l.m.

sereno Europe/Rome

13 °C

Sereno

Temp. 24 Ore

9 °C

26 °C

Ovest/Sud-Ovest

13 Km/h

Dew point 11 °C

Umidità 87 %

Visibilità  10 Km

Il sole sorge alle ore 05:50

Il sole tramonta alle ore 20:01

Data e Ora Cielo e Fenomeni T °C DP °C Um. % Pres. hPa Vis. km Vento km/h
Ieri h: 23:50 sereno Sereno 13 11 87 1014 10 O/SO 13
Ieri h: 23:20 sereno Sereno 14 11 82 1014 10 O 9.3
Ieri h: 22:20 sereno Sereno 17 11 67 1014 10 N 1.8
Ieri h: 21:20 sereno Sereno 17 12 72 1013 10 N 7.4
Ieri h: 20:50 sereno Sereno 18 13 72 1013 10 N 5.5
Ieri h: 20:20 sereno Sereno 19 13 68 1013 10 N 5.5
Ieri h: 19:50 sereno Sereno 19 13 68 1012 10 S/SE 11.1
Ieri h: 19:20 poco_nuvoloso Poco Nuvoloso 20 13 64 1012 10 S/SE 7.4
Ieri h: 18:50 poco_nuvoloso Poco Nuvoloso 20 13 64 1012 10 SE 9.3
Ieri h: 18:20 nuvoloso Nuvoloso 20 13 64 1012 10 E/SE 11.1
Ieri h: 17:20 nuvoloso Nuvoloso 21 12 56 1012 10 E 14.8
Ieri h: 16:50 nuvoloso Nuvoloso 21 13 60 1012 10 E/NE 13
Ieri h: 16:20 nuvoloso Nuvoloso 21 13 60 1012 10 E/NE 14.8
Ieri h: 15:50 nuvoloso Nuvoloso 21 13 60 1012 10 E/NE 20.3
Ieri h: 15:20 nuvoloso Nuvoloso 21 12 56 1012 10 E/NE 20.3
Ieri h: 14:50 nuvoloso Nuvoloso 21 13 60 1012 10 E/NE 20.3
Ieri h: 14:20 poco_nuvoloso Poco Nuvoloso 21 13 60 1012 10 E/NE 22.2
Ieri h: 13:50 poco_nuvoloso Poco Nuvoloso 22 11 49 1012 10 E 22.2
Ieri h: 13:20 poco_nuvoloso Poco Nuvoloso 22 10 46 1012 10 E 25.9
Ieri h: 12:50 sereno Sereno 21 12 56 1012 10 E 27.8
Ieri h: 12:20 sereno Sereno 23 8 38 1012 10 E 20.3
Ieri h: 11:50 sereno Sereno 26 5 25 1012 10 N 24
Ieri h: 11:20 sereno Sereno 25 5 27 1012 10 O/SO 24
Ieri h: 10:50 sereno Sereno 24 5 29 1012 10 SO 20.3
Ieri h: 10:20 sereno Sereno 23 6 33 1012 10 O/SO 20.3
Ieri h: 09:50 sereno Sereno 22 8 40 1012 10 N 11.1
Ieri h: 09:20 sereno Sereno 20 7 42 1012 10 O 16.7
Ieri h: 08:50 sereno Sereno 19 7 45 1013 10 O/SO 14.8
Ieri h: 08:20 sereno Sereno 17 8 55 1013 10 O/SO 13
Ieri h: 07:50 sereno Sereno 14 9 71 1013 10 SO 13
Ieri h: 07:20 sereno Sereno 13 9 76 1013 10 SO 13
Ieri h: 06:50 sereno Sereno 11 9 87 1013 10 SO 11.1
Ieri h: 06:20 sereno Sereno 9 7 87 1013 10 O/SO 11.1
Ieri h: 05:50 sereno Sereno 9 7 87 1013 10 O/SO 7.4
Ieri h: 05:20 sereno Sereno 10 7 81 1013 10 O/SO 9.3
Ieri h: 04:50 sereno Sereno 10 7 81 1013 10 O/SO 7.4
Ieri h: 04:20 sereno Sereno 11 8 81 1013 10 O/SO 13
Ieri h: 03:50 sereno Sereno 10 8 87 1013 10 O/SO 13
Ieri h: 03:20 sereno Sereno 11 8 81 1013 10 O 13
Ieri h: 02:50 sereno Sereno 11 8 81 1013 10 SO 14.8
Ieri h: 02:20 sereno Sereno 11 8 81 1013 10 O 13
Ieri h: 01:50 sereno Sereno 11 8 81 1013 10 O 9.3
Ieri h: 01:20 sereno Sereno 13 9 76 1013 10 SO 11.1
Ieri h: 00:50 sereno Sereno 13 8 71 1014 10 SO 11.1